Lancing, United Kingdom
Current Conditions -  °F | °C
As of 10:20 AM on Sunday 26 Oct 2014 (Local Time) from EGKA Reporting Station
Drizzle Drizzle  
Wind Chill: 59°   Ceiling: 4000
Heat Index: 59°   Visibility: 6mi
Dew Point: 52°   Wind: 14mph
Humidity: 77%   Direction: 220°SW
Pressure: 30.18"   Gusts: NA
Location:  50.83°N, 0.33°W
Report Text: EGKA 260920Z 22012KT 9999 -DZ FEW018 SCT025 BKN040 15/11 Q1022
Loading
Personal Weather Stations






























Interactive Weather Map
Tropical Storm Tracking
New forecast layout! Learn more

10-Day Weather Forecast

Advertisements
Track Severe Weather on mobile